RJBB Airport Information

Runway Information
Runway 06L Length 13123 ft width 196 ft
Elevation 24 ft Threshold 0 ft Heading 51
Runway 24R Length 13123 ft Width 196 ft
Elevation 32 ft Threshold 0 ft Heading 231
Runway 06R Length 11483 ft width 196 ft
Elevation 6 ft Threshold 0 ft Heading 51
Runway 24L Length 11483 ft Width 196 ft
Elevation 15 ft Threshold 0 ft Heading 231
Airport Frequencies
Type APP Name APP Frequency 120.25 MHZ
Type ATIS Name ATIS Frequency 127.85 MHZ
Type CLD Name CLNC DEL Frequency 121.9 MHZ
Type DEP Name DEP Frequency 119.2 MHZ
Type GND Name GND Frequency 121.6 MHZ
Type TCA Name TCA Frequency 121.1 MHZ
Type TWR Name TWR Frequency 118.2 MHZ
Airport Navaids
Type NDB Name Kansai Frequency 346 KHZ
Type VOR-DME Name Kansai Frequency 111800 KHZ
Type VOR-DME Name Shigi Frequency 111600 KHZ
Type VOR-DME Name Shinoda Frequency 112300 KHZ
Type VOR-DME Name Tomo Frequency 116400 KHZ
Airport Weather Information & NOTAM
ADDS - METARS form results

(1443 UTC 20 August 2019)
Data provider http://aviationweather.gov/metar/data/
 
METAR text: RJBB 201430Z AUTO 20006KT 9999 FEW020 SCT050 BKN070 28/26 Q1010 NOSIG
Conditions at: RJBB (KANSAI INTL , JP) observed 1430 UTC 20 August 2019
Temperature: 28.0°C (82°F)
Dewpoint: 26.0°C (79°F) [RH = 89%]
Pressure (altimeter): 29.82 inches Hg (1010.0 mb)
Winds: from the SSW (200 degrees) at 7 MPH (6 knots; 3.1 m/s)
Visibility: 6 or more miles (10+ km)
Ceiling: 7000 feet AGL
Clouds: few clouds at 2000 feet AGL
scattered clouds at 5000 feet AGL
broken clouds at 7000 feet AGL
Weather: no significant weather observed at this time

METAR text: RJBB 201400Z AUTO 22005KT 9999 FEW020 BKN060 OVC080 28/26 Q1010 NOSIG
Conditions at: RJBB (KANSAI INTL , JP) observed 1400 UTC 20 August 2019
Temperature: 28.0°C (82°F)
Dewpoint: 26.0°C (79°F) [RH = 89%]
Pressure (altimeter): 29.82 inches Hg (1010.0 mb)
Winds: from the SW (220 degrees) at 6 MPH (5 knots; 2.6 m/s)
Visibility: 6 or more miles (10+ km)
Ceiling: 6000 feet AGL
Clouds: few clouds at 2000 feet AGL
broken clouds at 6000 feet AGL
overcast cloud deck at 8000 feet AGL
Weather: no significant weather observed at this time

Forecast for: RJBB (KANSAI INTL , JP)
Text: TAF RJBB 201110Z 2012/2118 21009KT 9999 FEW020 SCT040
Forecast period: 1200 UTC 20 August 2019 to 1800 UTC 21 August 2019
Forecast type: FROM: standard forecast or significant change
Winds: from the SSW (210 degrees) at 10 MPH (9 knots; 4.6 m/s)
Visibility: 6 or more miles 10+ km)
Ceiling: at least 12,000 feet AGL
Clouds: few clouds at 2000 feet AGL
scattered clouds at 4000 feet AGL
Weather: no significant weather forecast for this period